Rocky Point, NC (28457)

5:11 PM EDT on July 01, 2015 (GMT -0400)
St. Helena | | Change Station
CLOSE
Current Station
Personal Weather Station
Location: Burgaw, NC
Elevation: 49 ft
Nearby Weather Stations

Elev 49 ft 34.51 °N, 77.91 °W | Updated 11 minutes ago

Partly Cloudy
Partly Cloudy
84.5 °F
Feels Like 93 °F
N
3.0
Wind Variable Wind from West
Gusts 14.0 mph

Today
High -- | Low -- °F
--% Chance of Precip.
Yesterday
High -- | Low -- °F
Precip. -- in
6:02 AM 8:28 PM
Full, 100% visible
Pressure 29.94 in
Visibility 10.0 miles
Clouds Few 3800 ft
Scattered Clouds 4700 ft
Heat Index 93 °F
Dew Point 75 °F
Humidity 73%
Rainfall 0.00 in
Snow Depth Not available.
UV 1.7 out of 12
Pollen 3.90 out of 12
Air Quality Not available.
Flu Activity Not available.
METAR KILM 012053Z AUTO 25010KT 10SM FEW038 SCT047 31/21 A2994 RMK AO2 SLP137 T03060211 57010

More Conditions Fewer Conditions

Pressure 29.94 in
Visibility 10.0 miles
Clouds Few 3800 ft
Scattered Clouds 4700 ft
Heat Index 93 °F
Dew Point 75 °F
Humidity 73%
Rainfall 0.00 in
Snow Depth Not available.
UV 1.7 out of 12
Pollen 3.90 out of 12
Air Quality Not available.
Flu Activity Not available.
METAR KILM 012053Z AUTO 25010KT 10SM FEW038 SCT047 31/21 A2994 RMK AO2 SLP137 T03060211 57010

More Conditions Fewer Conditions

10-Day Weather Forecast

×

Almanac

Astronomy

Jul. 01, 2015 Rise Set
Actual Time
Civil Twilight
Nautical Twilight
Astronomical Twilight
Moon
Length of Visible Light
Length of Day
Tomorrow will be .
, % of the Moon is Illuminated

Today's Extremes

State Highs State Lows

Community

WunderPhotos

Upload Photos

1,834,286 photos uploaded!

WunderBlogs® & News

Nearby

Air Quality

  Air Quality AQ Index Pollutant
Not available.

Snow Depth

Station Depth Elevation

Earthquake Activity

City Distance Mag. Time & Date
Minimum magnitude displayed is 2.5.

Coastal Water Temperatures

Place Temperature

Stations

Nearby Weather Stations

Station Location Temp. Windchill Dew Point Humidity Wind Precip. Elev Updated Type